Dades meteomassalio
Diari Summary for Gener 18, 2017 Units:  English    Metric   Both
« Previous Day
Next Day »
Diari Semanal Mensual Anual Personalitzat
  Maxima: Minima: Mijana:
Temperatura: 38.5 °F 26.1 °F 31.5 °F
Rosada: 22.3 °F 11.5 °F 17.4 °F
Humitat: 80 % 41 % 57 %
Velocitat del vent: 19.6 mph 0 mph 9.4 mph
Racha vent: 19.6 mph - -
Vent:- - West
Pressio: 30.3 in 30.2 in -
Pluja: 0 in    
Historical Graphs
 
 
Tabular Data for Gener 18, 2017
Time Temperature Dew Point Pressure Wind Wind Speed Wind Gust Humidity Rainfall Rate (Hourly) solar Conditions
00:02 31.6 °F 18.1 °F 30.2 in West 12.7 mph 12.7 mph 57 % 0 in 0.0 W/m2 CLR
00:07 31.6 °F 18.1 °F 30.2 in West 17.3 mph 17.3 mph 57 % 0 in 0.0 W/m2 CLR
00:12 31.6 °F 18.1 °F 30.2 in West 13.8 mph 13.8 mph 57 % 0 in 0.0 W/m2 CLR
00:17 31.6 °F 17.8 °F 30.2 in West 11.5 mph 11.5 mph 56 % 0 in 0.0 W/m2 CLR
00:22 31.6 °F 17.8 °F 30.2 in West 15 mph 15 mph 56 % 0 in 0.0 W/m2 CLR
00:27 31.5 °F 17.6 °F 30.2 in West 17.3 mph 17.3 mph 56 % 0 in 0.0 W/m2 CLR
00:32 31.6 °F 17.8 °F 30.2 in West 16.1 mph 16.1 mph 56 % 0 in 0.0 W/m2 CLR
00:37 31.5 °F 17.6 °F 30.2 in West 15 mph 15 mph 56 % 0 in 0.0 W/m2 CLR
00:42 31.5 °F 17.4 °F 30.2 in West 11.5 mph 11.5 mph 56 % 0 in 0.0 W/m2 CLR
00:47 31.3 °F 17.4 °F 30.2 in West 16 mph 16 mph 56 % 0 in 0.0 W/m2 CLR
00:52 31.3 °F 17.8 °F 30.2 in West 15 mph 15 mph 57 % 0 in 0.0 W/m2 CLR
00:57 31.1 °F 17.6 °F 30.2 in West 13.8 mph 13.8 mph 57 % 0 in 0.0 W/m2 CLR
01:02 30.9 °F 17.4 °F 30.2 in West 12.7 mph 12.7 mph 57 % 0 in 0.0 W/m2 CLR
01:07 30.9 °F 17.4 °F 30.2 in West 11.5 mph 11.5 mph 57 % 0 in 0.0 W/m2 CLR
01:12 30.7 °F 17.2 °F 30.2 in West 11.5 mph 11.5 mph 57 % 0 in 0.0 W/m2 CLR
01:17 30.7 °F 17.2 °F 30.2 in West 10.4 mph 10.4 mph 57 % 0 in 0.0 W/m2 CLR
01:22 30.6 °F 17.1 °F 30.2 in West 11.5 mph 11.5 mph 57 % 0 in 0.0 W/m2 CLR
01:27 30.6 °F 17.4 °F 30.2 in West 8.1 mph 8.1 mph 58 % 0 in 0.0 W/m2 CLR
01:32 30.4 °F 17.4 °F 30.2 in West 15 mph 15 mph 58 % 0 in 0.0 W/m2 CLR
01:37 30.4 °F 17.4 °F 30.2 in West 16.1 mph 16.1 mph 58 % 0 in 0.0 W/m2 CLR
01:42 30.4 °F 17.2 °F 30.2 in West 11 mph 11 mph 58 % 0 in 0.0 W/m2 CLR
01:47 30.2 °F 17.2 °F 30.2 in West 11.5 mph 11.5 mph 58 % 0 in 0.0 W/m2 CLR
01:52 30.2 °F 17.2 °F 30.2 in West 12.7 mph 12.7 mph 58 % 0 in 0.0 W/m2 CLR
01:57 30.2 °F 17.2 °F 30.2 in West 14 mph 14 mph 58 % 0 in 0.0 W/m2 CLR
02:02 30 °F 17.4 °F 30.2 in West 12.7 mph 12.7 mph 59 % 0 in 0.0 W/m2 CLR
02:07 30 °F 17.1 °F 30.2 in WNW 18.4 mph 18.4 mph 58 % 0 in 0.0 W/m2 CLR
02:12 30 °F 17.1 °F 30.2 in WNW 16.1 mph 16.1 mph 58 % 0 in 0.0 W/m2 CLR
02:17 30 °F 17.1 °F 30.2 in West 16.1 mph 16.1 mph 58 % 0 in 0.0 W/m2 CLR
02:22 30 °F 17.1 °F 30.2 in West 14 mph 14 mph 58 % 0 in 0.0 W/m2 CLR
02:27 30 °F 17.1 °F 30.2 in West 12 mph 12 mph 58 % 0 in 0.0 W/m2 CLR
02:32 30 °F 16.5 °F 30.2 in West 15 mph 15 mph 57 % 0 in 0.0 W/m2 CLR
02:37 30 °F 16.5 °F 30.2 in West 16.1 mph 16.1 mph 57 % 0 in 0.0 W/m2 CLR
02:42 29.8 °F 16.5 °F 30.2 in West 15 mph 15 mph 57 % 0 in 0.0 W/m2 CLR
02:47 29.8 °F 16.5 °F 30.2 in West 11.5 mph 11.5 mph 57 % 0 in 0.0 W/m2 CLR
02:52 29.8 °F 16.3 °F 30.2 in West 17.3 mph 17.3 mph 57 % 0 in 0.0 W/m2 CLR
02:57 29.7 °F 16.3 °F 30.2 in WNW 12.7 mph 12.7 mph 57 % 0 in 0.0 W/m2 CLR
03:02 29.7 °F 16.2 °F 30.2 in West 11.5 mph 11.5 mph 57 % 0 in 0.0 W/m2 CLR
03:07 29.5 °F 16.2 °F 30.2 in West 10.4 mph 10.4 mph 57 % 0 in 0.0 W/m2 CLR
03:12 29.7 °F 16.3 °F 30.2 in West 12.7 mph 12.7 mph 57 % 0 in 0.0 W/m2 CLR
03:17 29.7 °F 16.2 °F 30.2 in West 13 mph 13 mph 57 % 0 in 0.0 W/m2 CLR
03:22 29.7 °F 15.8 °F 30.2 in West 11.5 mph 11.5 mph 56 % 0 in 0.0 W/m2 CLR
03:27 29.5 °F 16.2 °F 30.2 in West 11.5 mph 11.5 mph 57 % 0 in 0.0 W/m2 CLR
03:32 29.5 °F 16 °F 30.2 in West 13 mph 13 mph 57 % 0 in 0.0 W/m2 CLR
03:37 29.3 °F 16 °F 30.2 in West 11.5 mph 11.5 mph 57 % 0 in 0.0 W/m2 CLR
03:42 29.1 °F 15.8 °F 30.2 in West 9.2 mph 9.2 mph 57 % 0 in 0.0 W/m2 CLR
03:47 29.1 °F 15.6 °F 30.2 in West 9.2 mph 9.2 mph 57 % 0 in 0.0 W/m2 CLR
03:52 28.9 °F 15.6 °F 30.2 in West 10.4 mph 10.4 mph 57 % 0 in 0.0 W/m2 CLR
03:57 28.9 °F 15.6 °F 30.2 in West 10 mph 10 mph 57 % 0 in 0.0 W/m2 CLR
04:03 28.9 °F 15.6 °F 30.2 in West 11.5 mph 11.5 mph 57 % 0 in 0.0 W/m2 CLR
04:08 28.8 °F 15.4 °F 30.2 in West 6 mph 6 mph 57 % 0 in 0.0 W/m2 CLR
04:13 28.8 °F 15.4 °F 30.2 in West 9.2 mph 9.2 mph 57 % 0 in 0.0 W/m2 CLR
04:18 28.8 °F 15.8 °F 30.2 in West 7 mph 7 mph 58 % 0 in 0.0 W/m2 CLR
04:23 28.6 °F 15.6 °F 30.2 in West 9.2 mph 9.2 mph 58 % 0 in 0.0 W/m2 CLR
04:28 28.8 °F 15.4 °F 30.2 in West 12.7 mph 12.7 mph 57 % 0 in 0.0 W/m2 CLR
04:33 28.6 °F 15.3 °F 30.2 in West 11.5 mph 11.5 mph 57 % 0 in 0.0 W/m2 CLR
04:38 28.6 °F 15.3 °F 30.2 in West 9.2 mph 9.2 mph 57 % 0 in 0.0 W/m2 CLR
04:43 28.6 °F 15.3 °F 30.2 in West 11.5 mph 11.5 mph 57 % 0 in 0.0 W/m2 CLR
04:48 28.4 °F 15.4 °F 30.2 in WSW 5 mph 5 mph 58 % 0 in 0.0 W/m2 CLR
04:53 28 °F 15.1 °F 30.2 in WSW 6.9 mph 6.9 mph 58 % 0 in 0.0 W/m2 CLR
04:58 27.9 °F 15.3 °F 30.2 in WSW 5.8 mph 5.8 mph 59 % 0 in 0.0 W/m2 CLR
05:03 27.7 °F 15.3 °F 30.2 in WSW 9.2 mph 9.2 mph 59 % 0 in 0.0 W/m2 CLR
05:08 27.7 °F 15.1 °F 30.2 in WSW 7 mph 7 mph 59 % 0 in 0.0 W/m2 CLR
05:13 27.5 °F 15.1 °F 30.2 in WSW 6.9 mph 6.9 mph 59 % 0 in 0.0 W/m2 CLR
05:18 27.3 °F 15.3 °F 30.2 in WSW 5.8 mph 5.8 mph 60 % 0 in 0.0 W/m2 CLR
05:23 27.3 °F 15.3 °F 30.2 in WSW 5.8 mph 5.8 mph 60 % 0 in 0.0 W/m2 CLR
05:28 27.3 °F 15.3 °F 30.2 in WSW 6.9 mph 6.9 mph 60 % 0 in 0.0 W/m2 CLR
05:29 27.3 °F 15.3 °F 30.2 in WSW 8.1 mph 8.1 mph 60 % 0 in 0.0 W/m2 CLR
05:34 27.3 °F 15.3 °F 30.2 in WSW 8.1 mph 8.1 mph 60 % 0 in 0.0 W/m2 CLR
05:39 27.3 °F 15.3 °F 30.3 in WSW 6.9 mph 6.9 mph 60 % 0 in 0.0 W/m2 CLR
05:40 27.1 °F 15.1 °F 30.2 in WSW 7 mph 7 mph 60 % 0 in 0.0 W/m2 CLR
05:45 27.1 °F 15.1 °F 30.3 in WSW 8.1 mph 8.1 mph 60 % 0 in 0.0 W/m2 CLR
05:50 27.1 °F 15.1 °F 30.2 in WSW 11.5 mph 11.5 mph 60 % 0 in 0.0 W/m2 CLR
05:55 27.1 °F 15.1 °F 30.2 in WSW 10.4 mph 10.4 mph 60 % 0 in 0.0 W/m2 CLR
06:00 27.1 °F 14.7 °F 30.3 in WSW 9.2 mph 9.2 mph 59 % 0 in 0.0 W/m2 CLR
06:05 27.1 °F 14.7 °F 30.3 in WSW 9.2 mph 9.2 mph 59 % 0 in 0.0 W/m2 CLR
06:11 27.1 °F 14.7 °F 30.3 in WSW 10.4 mph 10.4 mph 59 % 0 in 0.0 W/m2 CLR
06:16 27.1 °F 14.7 °F 30.2 in WSW 9.2 mph 9.2 mph 59 % 0 in 0.0 W/m2 CLR
06:21 27.1 °F 14.4 °F 30.3 in WSW 10.4 mph 10.4 mph 58 % 0 in 0.0 W/m2 CLR
06:26 27.3 °F 14.5 °F 30.3 in WSW 10.4 mph 10.4 mph 58 % 0 in 0.0 W/m2 CLR
06:31 27.1 °F 14.4 °F 30.3 in WSW 9.2 mph 9.2 mph 58 % 0 in 0.0 W/m2 CLR
06:36 27.1 °F 14.4 °F 30.3 in WSW 10.4 mph 10.4 mph 58 % 0 in 0.0 W/m2 CLR
06:41 27.1 °F 14.4 °F 30.3 in WSW 9.2 mph 9.2 mph 58 % 0 in 0.0 W/m2 CLR
06:46 27.1 °F 14.4 °F 30.3 in WSW 9.2 mph 9.2 mph 58 % 0 in 0.0 W/m2 CLR
06:51 27 °F 14.2 °F 30.3 in WSW 10.4 mph 10.4 mph 58 % 0 in 0.0 W/m2 CLR
06:56 27 °F 14.2 °F 30.3 in WSW 10.4 mph 10.4 mph 58 % 0 in 0.0 W/m2 CLR
07:01 27 °F 14.2 °F 30.3 in WSW 9.2 mph 9.2 mph 58 % 0 in 0.0 W/m2 CLR
07:06 26.8 °F 14 °F 30.3 in WSW 8.1 mph 8.1 mph 58 % 0 in 0.0 W/m2 CLR
07:11 27 °F 14.2 °F 30.3 in WSW 8.1 mph 8.1 mph 58 % 0 in 0.0 W/m2 CLR
07:16 26.8 °F 14 °F 30.3 in WSW 9.2 mph 9.2 mph 58 % 0 in 0.0 W/m2 CLR
07:21 26.8 °F 14 °F 30.3 in WSW 8.1 mph 8.1 mph 58 % 0 in 0.0 W/m2 CLR
07:26 26.8 °F 13.5 °F 30.3 in WSW 7 mph 7 mph 57 % 0 in 0.0 W/m2 CLR
07:31 26.8 °F 13.6 °F 30.3 in WSW 6.9 mph 6.9 mph 57 % 0 in 0.0 W/m2 CLR
07:36 26.8 °F 13.5 °F 30.3 in WSW 6.9 mph 6.9 mph 57 % 0 in 0.0 W/m2 CLR
07:41 26.6 °F 13.5 °F 30.3 in WSW 8.1 mph 8.1 mph 57 % 0 in 0.0 W/m2 CLR
07:46 26.8 °F 13.5 °F 30.3 in WSW 8 mph 8 mph 57 % 0 in 0.0 W/m2 CLR
07:51 26.6 °F 13.5 °F 30.3 in WSW 5.8 mph 5.8 mph 57 % 0 in 0.0 W/m2 CLR
07:56 26.4 °F 13.3 °F 30.3 in WSW 6.9 mph 6.9 mph 57 % 0 in 0.0 W/m2 CLR
08:01 26.4 °F 13.3 °F 30.3 in WSW 6 mph 6 mph 57 % 0 in 0.0 W/m2 CLR
08:06 26.2 °F 13.1 °F 30.3 in WSW 6 mph 6 mph 57 % 0 in 0.0 W/m2 CLR
08:11 26.2 °F 12.9 °F 30.3 in WSW 7 mph 7 mph 57 % 0 in 0.0 W/m2 CLR
08:16 26.1 °F 12.9 °F 30.3 in SW 6 mph 6 mph 57 % 0 in 0.0 W/m2 CLR
08:21 26.1 °F 12.9 °F 30.3 in SW 6.9 mph 6.9 mph 57 % 0 in 0.0 W/m2 OVC
08:26 26.2 °F 12.9 °F 30.3 in WSW 8.1 mph 8.1 mph 57 % 0 in 5.0 W/m2 BKN
08:31 26.2 °F 12.7 °F 30.3 in WSW 5.8 mph 5.8 mph 56 % 0 in 7.0 W/m2 BKN
08:36 26.4 °F 12.7 °F 30.3 in WSW 9.2 mph 9.2 mph 56 % 0 in 9.0 W/m2 BKN
08:41 26.6 °F 12.6 °F 30.3 in WSW 8.1 mph 8.1 mph 55 % 0 in 12.0 W/m2 BKN
08:46 26.8 °F 12.7 °F 30.3 in WSW 8.1 mph 8.1 mph 55 % 0 in 16.0 W/m2 BKN
08:51 27 °F 12.6 °F 30.3 in WSW 8.1 mph 8.1 mph 54 % 0 in 18.0 W/m2 BKN
08:56 27.1 °F 12.6 °F 30.3 in WSW 8.1 mph 8.1 mph 54 % 0 in 21.0 W/m2 BKN
09:01 27.3 °F 12.7 °F 30.3 in WSW 6.9 mph 6.9 mph 54 % 0 in 35.0 W/m2 BKN
09:06 27.7 °F 13.1 °F 30.3 in WSW 6.9 mph 6.9 mph 54 % 0 in 47.0 W/m2 BKN
09:11 27.9 °F 13.3 °F 30.3 in WSW 6.9 mph 6.9 mph 54 % 0 in 53.0 W/m2 BKN
09:16 28 °F 13.1 °F 30.3 in WSW 8.1 mph 8.1 mph 53 % 0 in 72.0 W/m2 BKN
09:21 28.6 °F 13.1 °F 30.3 in WSW 6.9 mph 6.9 mph 52 % 0 in 88.0 W/m2 BKN
09:26 28.9 °F 13.1 °F 30.3 in WSW 9.2 mph 9.2 mph 51 % 0 in 98.0 W/m2 BKN
09:31 29.5 °F 13.1 °F 30.3 in WSW 8.1 mph 8.1 mph 50 % 0 in 113.0 W/m2 BKN
09:36 30 °F 12.7 °F 30.3 in West 9.2 mph 9.2 mph 48 % 0 in 125.0 W/m2 BKN
09:42 30.4 °F 12.6 °F 30.3 in West 8.1 mph 8.1 mph 47 % 0 in 141.0 W/m2 BKN
09:47 30.7 °F 12.4 °F 30.3 in West 10 mph 10 mph 46 % 0 in 155.0 W/m2 BKN
09:52 30.9 °F 12.6 °F 30.3 in West 9.2 mph 9.2 mph 46 % 0 in 169.0 W/m2 SCT
09:57 31.1 °F 12.2 °F 30.3 in West 9.2 mph 9.2 mph 45 % 0 in 181.0 W/m2 SCT
10:02 31.3 °F 12.4 °F 30.3 in West 9.2 mph 9.2 mph 45 % 0 in 174.0 W/m2 BKN
10:07 31.5 °F 12 °F 30.3 in West 13.8 mph 13.8 mph 44 % 0 in 213.0 W/m2 SCT
10:12 31.5 °F 12 °F 30.3 in West 15 mph 15 mph 44 % 0 in 216.0 W/m2 SCT
10:17 31.6 °F 12.2 °F 30.3 in WNW 11.5 mph 11.5 mph 44 % 0 in 244.0 W/m2 SCT
10:22 31.8 °F 12.4 °F 30.3 in WNW 13.8 mph 13.8 mph 44 % 0 in 257.0 W/m2 SCT
10:27 32 °F 12.9 °F 30.3 in WNW 16.1 mph 16.1 mph 45 % 0 in 272.0 W/m2 SCT
10:32 32.2 °F 12 °F 30.3 in WNW 12.7 mph 12.7 mph 43 % 0 in 283.0 W/m2 SCT
10:37 32.5 °F 12.6 °F 30.3 in West 11.5 mph 11.5 mph 43 % 0 in 294.0 W/m2 SCT
10:42 32.5 °F 11.5 °F 30.3 in West 15 mph 15 mph 41 % 0 in 304.0 W/m2 SCT
10:47 32.7 °F 12 °F 30.3 in West 17.3 mph 17.3 mph 42 % 0 in 316.0 W/m2 FEW
10:52 32.7 °F 12 °F 30.3 in West 15 mph 15 mph 42 % 0 in 325.0 W/m2 FEW
10:57 33.1 °F 12.9 °F 30.3 in West 13 mph 13 mph 43 % 0 in 334.0 W/m2 FEW
11:02 33.1 °F 12.9 °F 30.3 in WNW 15 mph 15 mph 43 % 0 in 345.0 W/m2 FEW
11:07 33.4 °F 13.3 °F 30.3 in WNW 13.8 mph 13.8 mph 43 % 0 in 353.0 W/m2 FEW
11:12 33.8 °F 13.1 °F 30.3 in West 13 mph 13 mph 42 % 0 in 364.0 W/m2 FEW
11:17 34 °F 13.3 °F 30.3 in WNW 12.7 mph 12.7 mph 42 % 0 in 371.0 W/m2 FEW
11:22 34.2 °F 13.5 °F 30.3 in NW 11.5 mph 11.5 mph 42 % 0 in 380.0 W/m2 FEW
11:27 34.2 °F 12.7 °F 30.3 in WNW 17.3 mph 17.3 mph 41 % 0 in 388.0 W/m2 FEW
11:32 34.2 °F 13.5 °F 30.3 in WNW 11 mph 11 mph 42 % 0 in 397.0 W/m2 FEW
11:37 34.5 °F 13.3 °F 30.3 in WNW 15 mph 15 mph 41 % 0 in 404.0 W/m2 FEW
11:42 34.5 °F 13.3 °F 30.3 in WNW 18.4 mph 18.4 mph 41 % 0 in 411.0 W/m2 FEW
11:47 34.5 °F 13.6 °F 30.3 in West 15 mph 15 mph 42 % 0 in 417.0 W/m2 FEW
11:52 34.9 °F 14.2 °F 30.3 in West 18 mph 18 mph 42 % 0 in 424.0 W/m2 FEW
11:57 34.9 °F 14 °F 30.3 in WNW 18.4 mph 18.4 mph 42 % 0 in 429.0 W/m2 CLR
12:02 34.9 °F 14 °F 30.3 in WNW 19.6 mph 19.6 mph 42 % 0 in 436.0 W/m2 CLR
12:07 34.9 °F 14.2 °F 30.3 in NW 13.8 mph 13.8 mph 42 % 0 in 439.0 W/m2 CLR
12:12 35.1 °F 14.4 °F 30.3 in WNW 17.3 mph 17.3 mph 42 % 0 in 445.0 W/m2 CLR
12:17 35.4 °F 14.5 °F 30.3 in WNW 16 mph 16 mph 42 % 0 in 450.0 W/m2 CLR
12:22 35.4 °F 14.5 °F 30.3 in WNW 15 mph 15 mph 42 % 0 in 452.0 W/m2 CLR
12:27 35.2 °F 15.1 °F 30.3 in West 19.6 mph 19.6 mph 43 % 0 in 455.0 W/m2 CLR
12:32 35.2 °F 15.1 °F 30.3 in West 18.4 mph 18.4 mph 43 % 0 in 459.0 W/m2 CLR
12:37 35.8 °F 16 °F 30.3 in WNW 16.1 mph 16.1 mph 44 % 0 in 461.0 W/m2 CLR
12:42 35.6 °F 15.8 °F 30.3 in WNW 17.3 mph 17.3 mph 44 % 0 in 462.0 W/m2 CLR
12:47 35.2 °F 15.4 °F 30.3 in WNW 11.5 mph 11.5 mph 44 % 0 in 464.0 W/m2 CLR
12:52 36.1 °F 16.9 °F 30.3 in WNW 11.5 mph 11.5 mph 45 % 0 in 466.0 W/m2 CLR
12:57 36.7 °F 17.2 °F 30.3 in NW 17.3 mph 17.3 mph 45 % 0 in 468.0 W/m2 CLR
13:02 36.5 °F 16.5 °F 30.3 in NW 19.6 mph 19.6 mph 44 % 0 in 469.0 W/m2 CLR
13:07 36.5 °F 17.1 °F 30.3 in NW 15 mph 15 mph 45 % 0 in 469.0 W/m2 CLR
13:12 36.3 °F 17.4 °F 30.3 in NW 15 mph 15 mph 46 % 0 in 471.0 W/m2 CLR
13:17 36.1 °F 17.2 °F 30.3 in NW 15 mph 15 mph 46 % 0 in 450.0 W/m2 CLR
13:22 36.3 °F 18.1 °F 30.3 in NW 11.5 mph 11.5 mph 47 % 0 in 471.0 W/m2 CLR
13:27 36.7 °F 17.8 °F 30.3 in NW 15 mph 15 mph 46 % 0 in 480.0 W/m2 CLR
13:32 36.7 °F 17.8 °F 30.3 in NW 15 mph 15 mph 46 % 0 in 489.0 W/m2 CLR
13:37 36.9 °F 18.5 °F 30.3 in NW 17.3 mph 17.3 mph 47 % 0 in 501.0 W/m2 CLR
13:42 37 °F 18.7 °F 30.3 in WNW 12.7 mph 12.7 mph 47 % 0 in 436.0 W/m2 CLR
13:47 36.9 °F 18.3 °F 30.3 in WNW 11.5 mph 11.5 mph 47 % 0 in 424.0 W/m2 CLR
13:52 36.9 °F 19 °F 30.3 in WNW 10.4 mph 10.4 mph 48 % 0 in 448.0 W/m2 CLR
13:57 37 °F 19.2 °F 30.3 in WNW 12 mph 12 mph 48 % 0 in 427.0 W/m2 CLR
14:02 37.2 °F 19.4 °F 30.3 in NW 16.1 mph 16.1 mph 48 % 0 in 411.0 W/m2 CLR
14:07 37.2 °F 19.4 °F 30.3 in NW 12.7 mph 12.7 mph 48 % 0 in 343.0 W/m2 CLR
14:12 37.4 °F 19.6 °F 30.3 in NW 17.3 mph 17.3 mph 48 % 0 in 422.0 W/m2 CLR
14:17 36.9 °F 19.6 °F 30.3 in NW 11.5 mph 11.5 mph 49 % 0 in 454.0 W/m2 FEW
14:22 37.4 °F 19.9 °F 30.3 in NW 15 mph 15 mph 49 % 0 in 404.0 W/m2 FEW
14:27 37.6 °F 19.8 °F 30.3 in NW 15 mph 15 mph 48 % 0 in 388.0 W/m2 CLR
14:32 37.6 °F 19.8 °F 30.3 in NW 11.5 mph 11.5 mph 48 % 0 in 403.0 W/m2 FEW
14:37 37.6 °F 19.6 °F 30.3 in NW 9.2 mph 9.2 mph 48 % 0 in 429.0 W/m2 CLR
14:42 37.6 °F 20.7 °F 30.3 in NW 8.1 mph 8.1 mph 50 % 0 in 374.0 W/m2 CLR
14:47 37.6 °F 20.7 °F 30.3 in NNW 9.2 mph 9.2 mph 50 % 0 in 207.0 W/m2 CLR
14:52 37.2 °F 20.1 °F 30.3 in NNW 11.5 mph 11.5 mph 50 % 0 in 316.0 W/m2 SCT
14:57 37.2 °F 20.7 °F 30.3 in NW 7 mph 7 mph 51 % 0 in 374.0 W/m2 FEW
15:02 37.4 °F 20.8 °F 30.3 in NW 11.5 mph 11.5 mph 51 % 0 in 281.0 W/m2 CLR
15:07 37.4 °F 20.8 °F 30.3 in NW 8.1 mph 8.1 mph 51 % 0 in 292.0 W/m2 CLR
15:12 37.2 °F 20.8 °F 30.3 in WNW 9.2 mph 9.2 mph 51 % 0 in 315.0 W/m2 FEW
15:18 37.4 °F 20.8 °F 30.3 in NW 10 mph 10 mph 51 % 0 in 302.0 W/m2 CLR
15:23 37.4 °F 21.4 °F 30.3 in NW 8.1 mph 8.1 mph 52 % 0 in 229.0 W/m2 CLR
15:28 37.4 °F 21.4 °F 30.3 in WNW 8.1 mph 8.1 mph 52 % 0 in 227.0 W/m2 FEW
15:33 37.6 °F 21.6 °F 30.3 in WNW 10 mph 10 mph 52 % 0 in 251.0 W/m2 SCT
15:38 37.6 °F 21 °F 30.3 in WNW 6.9 mph 6.9 mph 51 % 0 in 250.0 W/m2 FEW
15:43 37.8 °F 21.2 °F 30.3 in NW 7 mph 7 mph 51 % 0 in 274.0 W/m2 CLR
15:48 38.1 °F 21.6 °F 30.3 in NW 13 mph 13 mph 51 % 0 in 272.0 W/m2 CLR
15:53 38.1 °F 21 °F 30.3 in WNW 10.4 mph 10.4 mph 50 % 0 in 274.0 W/m2 CLR
15:58 38.1 °F 21.2 °F 30.3 in WNW 9.2 mph 9.2 mph 50 % 0 in 264.0 W/m2 CLR
16:03 38.3 °F 21.4 °F 30.3 in WNW 10.4 mph 10.4 mph 50 % 0 in 253.0 W/m2 CLR
16:08 38.1 °F 21.2 °F 30.3 in WNW 11.5 mph 11.5 mph 50 % 0 in 237.0 W/m2 CLR
16:13 38.5 °F 21.4 °F 30.3 in WNW 10.4 mph 10.4 mph 50 % 0 in 223.0 W/m2 CLR
16:18 38.3 °F 20.8 °F 30.3 in WNW 11.5 mph 11.5 mph 49 % 0 in 209.0 W/m2 CLR
16:23 38.3 °F 21.4 °F 30.3 in WNW 11.5 mph 11.5 mph 50 % 0 in 197.0 W/m2 CLR
16:28 38.3 °F 21.4 °F 30.3 in WNW 6.9 mph 6.9 mph 50 % 0 in 179.0 W/m2 CLR
16:33 38.5 °F 20.8 °F 30.3 in West 10.4 mph 10.4 mph 49 % 0 in 165.0 W/m2 CLR
16:38 38.1 °F 20.7 °F 30.3 in West 10.4 mph 10.4 mph 49 % 0 in 151.0 W/m2 CLR
16:43 38.1 °F 20.7 °F 30.3 in West 12.7 mph 12.7 mph 49 % 0 in 137.0 W/m2 CLR
16:48 37.9 °F 20.5 °F 30.3 in WNW 10.4 mph 10.4 mph 49 % 0 in 120.0 W/m2 CLR
16:53 37.8 °F 20.3 °F 30.3 in WNW 11.5 mph 11.5 mph 49 % 0 in 107.0 W/m2 CLR
16:58 37.6 °F 20.1 °F 30.3 in NW 10 mph 10 mph 49 % 0 in 95.0 W/m2 CLR
17:04 37.6 °F 20.7 °F 30.3 in WNW 11.5 mph 11.5 mph 50 % 0 in 63.0 W/m2 CLR
17:15 37.6 °F 20.5 °F 30.3 in WNW 5 mph 5.2 mph 50 % 0 in 53.0 W/m2 OVC
17:20 37.2 °F 20.8 °F 30.3 in WNW 5.8 mph 6.4 mph 51 % 0 in 44.0 W/m2 OVC
17:25 37 °F 20.5 °F 30.3 in WNW 5.8 mph 5.8 mph 51 % 0 in 33.0 W/m2 OVC
17:30 36.9 °F 20.3 °F 30.3 in WNW 5.8 mph 5.8 mph 51 % 0 in 26.0 W/m2 OVC
17:35 36.7 °F 20.7 °F 30.3 in NW 3.5 mph 3.5 mph 52 % 0 in 19.0 W/m2 OVC
17:40 36.3 °F 20.5 °F 30.3 in WNW 3.5 mph   52 % 0 in 16.0 W/m2 OVC
17:45 36.1 °F 20.1 °F 30.3 in WNW 3.5 mph 3.5 mph 52 % 0 in 12.0 W/m2 OVC
17:50 36 °F 20.5 °F 30.3 in West 5.8 mph 5.8 mph 53 % 0 in 11.0 W/m2 OVC
17:55 35.8 °F 20.3 °F 30.3 in West 3.5 mph 3.5 mph 53 % 0 in 7.0 W/m2 OVC
18:00 35.6 °F 20.7 °F 30.3 in West 3.5 mph 3.5 mph 54 % 0 in 5.0 W/m2 OVC
18:05 35.1 °F 20.5 °F 30.3 in WNW 3.5 mph 3.5 mph 55 % 0 in 0.0 W/m2 CLR
18:10 34.5 °F 20.5 °F 30.3 in WNW 3.5 mph 3.5 mph 56 % 0 in 0.0 W/m2 CLR
18:15 34 °F 19.8 °F 30.3 in WNW 3.5 mph 3.5 mph 56 % 0 in 0.0 W/m2 CLR
18:20 33.6 °F 20.1 °F 30.3 in WNW 3.5 mph 3.5 mph 57 % 0 in 0.0 W/m2 CLR
19:00 31.8 °F 19.6 °F 30.3 in Calm     60 % 0 in 0.0 W/m2 CLR
19:05 31.5 °F 19.9 °F 30.3 in Calm     62 % 0 in 0.0 W/m2 CLR
19:10 31.3 °F 19.8 °F 30.3 in Calm     62 % 0 in 0.0 W/m2 CLR
19:15 30.9 °F 19.9 °F 30.3 in West 2.3 mph 2.3 mph 63 % 0 in 0.0 W/m2 CLR
19:20 30.9 °F 20.1 °F 30.3 in West 8.1 mph 8.1 mph 64 % 0 in 0.0 W/m2 CLR
19:25 31.3 °F 20.1 °F 30.3 in WSW 7 mph 7 mph 63 % 0 in 0.0 W/m2 CLR
19:30 31.5 °F 20.3 °F 30.3 in West 5.8 mph 5.8 mph 63 % 0 in 0.0 W/m2 CLR
19:35 31.8 °F 20.7 °F 30.3 in West 8.1 mph 8.1 mph 63 % 0 in 0.0 W/m2 CLR
19:40 32.2 °F 21.4 °F 30.3 in West 8.1 mph 8.1 mph 64 % 0 in 0.0 W/m2 CLR
19:45 32.2 °F 21.4 °F 30.3 in WNW 6 mph 6 mph 64 % 0 in 0.0 W/m2 CLR
19:50 32.2 °F 21.4 °F 30.3 in WNW 5 mph 5 mph 64 % 0 in 0.0 W/m2 CLR
19:56 32 °F 21.6 °F 30.3 in WNW 4.6 mph 4.6 mph 65 % 0 in 0.0 W/m2 CLR
20:01 32 °F 21.6 °F 30.3 in West 3.5 mph 3.5 mph 65 % 0 in 0.0 W/m2 CLR
20:05 31.6 °F 21.2 °F 30.3 in West 3.5 mph 3.5 mph 65 % 0 in 0.0 W/m2 CLR
20:11 31.3 °F 21.2 °F 30.3 in West 2.3 mph   66 % 0 in 0.0 W/m2 CLR
20:16 30.7 °F 21.6 °F 30.3 in West 4.6 mph 4.6 mph 68 % 0 in 0.0 W/m2 CLR
20:21 30.9 °F 21.9 °F 30.3 in West 5.8 mph 5.8 mph 69 % 0 in 0.0 W/m2 CLR
20:26 31.3 °F 22.3 °F 30.3 in WNW 3.5 mph 3.5 mph 69 % 0 in 0.0 W/m2 CLR
20:31 31.1 °F 22.1 °F 30.3 in West 2.3 mph 2.3 mph 69 % 0 in 0.0 W/m2 CLR
20:36 30.9 °F 21.9 °F 30.3 in Calm     69 % 0 in 0.0 W/m2 CLR
20:41 30.7 °F 21.7 °F 30.3 in Calm     69 % 0 in 0.0 W/m2 CLR
20:46 30.4 °F 21.7 °F 30.3 in Calm     70 % 0 in 0.0 W/m2 CLR
20:51 30 °F 21.4 °F 30.3 in Calm     70 % 0 in 0.0 W/m2 CLR
20:56 29.7 °F 21.4 °F 30.3 in Calm     71 % 0 in 0.0 W/m2 CLR
21:01 29.5 °F 21.6 °F 30.3 in Calm   0.5 mph 72 % 0 in 0.0 W/m2 CLR
21:06 29.5 °F 21.7 °F 30.3 in West 3.5 mph 3.5 mph 73 % 0 in 0.0 W/m2 CLR
21:11 29.7 °F 22.1 °F 30.3 in West 3.5 mph 3.5 mph 73 % 0 in 0.0 W/m2 CLR
21:16 29.8 °F 22.3 °F 30.3 in West 3.5 mph 3.5 mph 73 % 0 in 0.0 W/m2 CLR
21:21 29.5 °F 21.6 °F 30.3 in WSW 2.3 mph 2.3 mph 72 % 0 in 0.0 W/m2 CLR
21:26 28.9 °F 21.4 °F 30.3 in WSW 3.5 mph 3.5 mph 73 % 0 in 0.0 W/m2 CLR
21:31 28.6 °F 21.4 °F 30.3 in WSW 5.8 mph 5.8 mph 74 % 0 in 0.0 W/m2 CLR
21:36 28.6 °F 21.6 °F 30.3 in WSW 4.6 mph 4.6 mph 75 % 0 in 0.0 W/m2 CLR
21:41 28.4 °F 21.6 °F 30.3 in WSW 4 mph 4 mph 75 % 0 in 0.0 W/m2 CLR
21:46 28.4 °F 21.6 °F 30.3 in WSW 5.8 mph 5.8 mph 75 % 0 in 0.0 W/m2 CLR
21:51 28.2 °F 21.4 °F 30.3 in WSW 5.8 mph 5.8 mph 75 % 0 in 0.0 W/m2 CLR
21:56 28.2 °F 21.7 °F 30.3 in WSW 6.9 mph 6.9 mph 76 % 0 in 0.0 W/m2 CLR
22:01 28.4 °F 21.7 °F 30.3 in WSW 6 mph 6 mph 76 % 0 in 0.0 W/m2 CLR
22:06 28.4 °F 21.7 °F 30.3 in WSW 5.8 mph 5.8 mph 76 % 0 in 0.0 W/m2 CLR
22:11 28.4 °F 21.7 °F 30.3 in WSW 6.9 mph 6.9 mph 76 % 0 in 0.0 W/m2 CLR
22:16 28.2 °F 21.6 °F 30.3 in WSW 6.9 mph 6.9 mph 76 % 0 in 0.0 W/m2 CLR
22:21 28.2 °F 21.6 °F 30.3 in WSW 5.8 mph 5.8 mph 76 % 0 in 0.0 W/m2 CLR
22:26 28 °F 21.6 °F 30.3 in WSW 6.9 mph 6.9 mph 76 % 0 in 0.0 W/m2 CLR
22:32 28 °F 21.6 °F 30.3 in WSW 3.5 mph 3.5 mph 76 % 0 in 0.0 W/m2 CLR
22:37 27.9 °F 21.4 °F 30.3 in WSW 1 mph 1 mph 76 % 0 in 0.0 W/m2 CLR
22:42 27.1 °F 20.7 °F 30.3 in Calm     76 % 0 in 0.0 W/m2 CLR
22:47 26.8 °F 20.7 °F 30.3 in Calm     77 % 0 in 0.0 W/m2 CLR
22:52 26.8 °F 20.8 °F 30.3 in WSW 1 mph 1 mph 78 % 0 in 0.0 W/m2 CLR
22:57 26.2 °F 20.5 °F 30.3 in WSW 4 mph 4 mph 78 % 0 in 0.0 W/m2 CLR
23:02 26.4 °F 21 °F 30.3 in WSW 5.8 mph 5.8 mph 80 % 0 in 0.0 W/m2 CLR
23:07 26.8 °F 21.4 °F 30.3 in WSW 5.8 mph 5.8 mph 80 % 0 in 0.0 W/m2 CLR
23:12 27 °F 21.4 °F 30.3 in SW 6.9 mph 6.9 mph 79 % 0 in 0.0 W/m2 CLR
23:17 27.3 °F 21.6 °F 30.3 in WSW 3.5 mph 3.5 mph 79 % 0 in 0.0 W/m2 CLR
23:22 27.3 °F 21.4 °F 30.3 in Calm     78 % 0 in 0.0 W/m2 CLR
23:27 27 °F 21 °F 30.3 in SSW 5.8 mph 5.8 mph 78 % 0 in 0.0 W/m2 CLR
23:32 27.3 °F 21.6 °F 30.3 in SW 6.9 mph 6.9 mph 79 % 0 in 0.0 W/m2 CLR
23:37 27.5 °F 21.6 °F 30.3 in WSW 6 mph 6 mph 78 % 0 in 0.0 W/m2 CLR
23:42 27.9 °F 21.9 °F 30.3 in WSW 5 mph 5 mph 78 % 0 in 0.0 W/m2 CLR
23:47 27.9 °F 21.6 °F 30.3 in WSW 5.8 mph 5.8 mph 77 % 0 in 0.0 W/m2 CLR
23:52 28 °F 21.7 °F 30.3 in WSW 5.8 mph 5.8 mph 77 % 0 in 0.0 W/m2 CLR
23:57 28.2 °F 21.9 °F 30.3 in WSW 5 mph 5 mph 77 % 0 in 0.0 W/m2 CLR
Lo Temps de Massalio
Compliments of Weather Underground - 1.25 mb